Time;durP1;ratioP1;P1;durP2;ratioP2;P2;SDS_P1;SDS_P2;PMS_P1;PMS_P2;Temp;Humidity;BMP_temperature;BMP_pressure;BME280_temperature;BME280_humidity;BME280_pressure;Samples;Min_cycle;Max_cycle;Signal;HPM_P1;HPM_P2
2023/10/26 00:04:07;;;;;;;4.65;1.88;;;19.80;84.20;;;;;;10529880;28;20181;-37
2023/10/26 00:09:10;;;;;;;3.08;2.15;;;19.80;84.10;;;;;;10521357;28;20036;-37
2023/10/26 00:14:11;;;;;;;4.50;2.33;;;19.80;84.10;;;;;;10523519;28;20135;-39
2023/10/26 00:19:13;;;;;;;7.07;2.17;;;19.80;84.10;;;;;;10529629;28;20139;-28
2023/10/26 00:24:16;;;;;;;3.65;1.70;;;19.70;84.00;;;;;;10530963;28;20065;-31
2023/10/26 00:29:18;;;;;;;4.10;1.80;;;19.70;84.00;;;;;;10531278;28;20047;-36
2023/10/26 00:34:20;;;;;;;2.72;1.60;;;19.70;84.00;;;;;;10529596;28;20043;-52
2023/10/26 00:39:23;;;;;;;4.20;1.70;;;19.70;83.80;;;;;;10528937;28;20125;-37
2023/10/26 00:44:25;;;;;;;2.70;1.05;;;19.70;83.90;;;;;;10528839;28;20055;-32
2023/10/26 00:49:27;;;;;;;2.28;1.67;;;19.70;83.80;;;;;;10523581;28;20173;-35
2023/10/26 00:54:30;;;;;;;2.00;1.20;;;19.60;83.60;;;;;;10532613;28;20134;-34
2023/10/26 00:59:33;;;;;;;5.03;1.60;;;19.70;83.70;;;;;;10522782;28;20071;-35
2023/10/26 01:04:35;;;;;;;3.10;1.67;;;19.70;83.70;;;;;;10528955;28;20056;-32
2023/10/26 01:09:38;;;;;;;2.78;1.42;;;19.60;83.50;;;;;;10528832;28;20134;-50
2023/10/26 01:14:40;;;;;;;3.30;1.20;;;19.60;83.50;;;;;;10534803;28;20035;-31
2023/10/26 01:19:42;;;;;;;;;;;19.60;83.60;;;;;;10530040;28;20484;-32
2023/10/26 01:24:45;;;;;;;3.23;1.40;;;19.60;83.60;;;;;;10537970;28;19930;-32
2023/10/26 01:29:47;;;;;;;4.68;2.30;;;19.50;83.50;;;;;;10534629;28;20053;-37
2023/10/26 01:34:49;;;;;;;2.85;1.70;;;19.60;83.60;;;;;;10536654;28;20123;-40
2023/10/26 01:39:52;;;;;;;2.63;1.30;;;19.50;83.60;;;;;;10536950;28;20120;-40
2023/10/26 01:44:54;;;;;;;3.90;1.30;;;19.60;83.50;;;;;;10530954;28;20072;-40
2023/10/26 01:49:55;;;;;;;2.08;1.10;;;19.50;83.40;;;;;;10540500;28;20131;-31
2023/10/26 01:54:58;;;;;;;2.42;1.60;;;19.60;83.30;;;;;;10535185;28;20139;-33
2023/10/26 02:00:00;;;;;;;2.38;1.00;;;19.60;83.10;;;;;;10542936;28;20173;-34
2023/10/26 02:05:03;;;;;;;3.35;1.38;;;19.50;83.20;;;;;;10539115;28;20389;-35
2023/10/26 02:10:07;;;;;;;0.90;0.88;;;19.50;83.10;;;;;;10544168;28;20384;-32
2023/10/26 02:15:09;;;;;;;2.92;0.95;;;19.50;82.90;;;;;;10540966;28;20032;-41
2023/10/26 02:20:12;;;;;;;2.67;1.30;;;19.50;83.00;;;;;;10532481;28;20092;-38
2023/10/26 02:25:15;;;;;;;;;;;19.50;83.00;;;;;;10531520;28;20462;-36
2023/10/26 02:30:17;;;;;;;3.53;1.23;;;19.40;82.90;;;;;;10538821;28;20002;-37
2023/10/26 02:35:20;;;;;;;1.42;1.00;;;19.40;82.80;;;;;;10529708;28;20444;-33
2023/10/26 02:40:23;;;;;;;2.92;1.00;;;19.40;82.90;;;;;;10533304;28;20075;-34
2023/10/26 02:45:25;;;;;;;2.40;1.30;;;19.40;82.80;;;;;;10535966;28;20152;-35
2023/10/26 02:50:27;;;;;;;2.08;1.10;;;19.40;83.30;;;;;;10527284;28;20064;-32
2023/10/26 02:55:30;;;;;;;;;;;19.40;82.60;;;;;;10532408;28;20056;-31
2023/10/26 03:15:29;;;;;;;1.85;1.10;;;19.20;82.10;;;;;;10465716;28;20190;-35
2023/10/26 03:20:33;;;;;;;2.38;1.13;;;19.30;82.30;;;;;;10485997;28;20045;-33
2023/10/26 03:25:35;;;;;;;1.70;1.20;;;19.30;82.40;;;;;;10494483;28;20732;-33
2023/10/26 03:30:38;;;;;;;0.88;0.77;;;19.30;82.30;;;;;;10495900;28;20044;-36
2023/10/26 03:35:40;;;;;;;1.58;1.00;;;19.30;82.30;;;;;;10493696;28;20096;-32
2023/10/26 03:40:41;;;;;;;1.10;0.80;;;19.30;82.30;;;;;;10485792;28;20052;-43
2023/10/26 03:45:47;;;;;;;1.15;0.80;;;19.30;82.10;;;;;;10490626;28;20110;-36
2023/10/26 03:50:48;;;;;;;1.63;1.13;;;19.30;82.00;;;;;;10498083;28;20048;-35
2023/10/26 03:55:50;;;;;;;2.70;1.42;;;19.30;81.90;;;;;;10493999;28;20477;-35
2023/10/26 04:00:53;;;;;;;1.95;1.08;;;19.30;81.90;;;;;;10491224;28;20048;-34
2023/10/26 04:05:55;;;;;;;1.83;0.90;;;19.30;81.70;;;;;;10496845;28;20045;-44
2023/10/26 04:10:57;;;;;;;2.13;1.10;;;19.30;81.60;;;;;;10494623;28;20064;-44
2023/10/26 04:16:04;;;;;;;1.58;0.98;;;19.30;81.80;;;;;;10522669;28;20072;-31
2023/10/26 04:21:06;;;;;;;1.77;0.90;;;19.30;81.80;;;;;;10533149;28;20472;-35
2023/10/26 04:26:09;;;;;;;1.85;1.30;;;19.30;81.30;;;;;;10508539;28;20089;-36
2023/10/26 04:31:12;;;;;;;1.30;1.00;;;19.40;80.60;;;;;;10504022;28;20400;-35
2023/10/26 04:36:13;;;;;;;1.35;0.90;;;19.60;80.20;;;;;;10512603;28;20539;-38
2023/10/26 04:41:15;;;;;;;2.05;1.30;;;19.60;80.00;;;;;;10500634;28;20489;-36
2023/10/26 04:46:18;;;;;;;1.33;1.20;;;19.70;79.80;;;;;;10505877;28;24523;-39
2023/10/26 04:51:20;;;;;;;1.17;0.93;;;19.70;79.50;;;;;;10511166;28;20488;-37
2023/10/26 04:56:22;;;;;;;1.40;1.20;;;19.80;79.60;;;;;;10496573;28;20074;-35
2023/10/26 05:01:25;;;;;;;1.27;1.00;;;19.80;79.60;;;;;;10496554;28;20728;-33
2023/10/26 05:06:27;;;;;;;1.92;1.10;;;19.90;79.50;;;;;;10504592;28;20044;-34
2023/10/26 05:11:28;;;;;;;1.30;1.00;;;19.90;79.30;;;;;;10495374;28;20051;-39
2023/10/26 05:16:32;;;;;;;8.23;1.10;;;20.00;79.60;;;;;;10488471;28;20037;-32
2023/10/26 05:21:34;;;;;;;1.25;1.08;;;20.00;79.60;;;;;;10512008;28;20095;-33
2023/10/26 05:26:35;;;;;;;1.60;0.90;;;20.10;79.60;;;;;;10507919;28;20060;-33
2023/10/26 05:31:38;;;;;;;2.60;0.90;;;20.10;79.70;;;;;;10499837;28;20082;-41
2023/10/26 05:36:40;;;;;;;2.63;1.42;;;20.20;79.70;;;;;;10506585;28;20123;-35
2023/10/26 05:41:43;;;;;;;1.85;1.30;;;20.10;79.70;;;;;;10511327;28;20093;-34
2023/10/26 05:46:46;;;;;;;2.08;1.17;;;20.20;79.80;;;;;;10500386;28;20109;-44
2023/10/26 05:51:48;;;;;;;2.67;1.10;;;20.20;79.90;;;;;;10489690;28;20094;-40
2023/10/26 05:56:50;;;;;;;2.13;1.23;;;20.20;79.90;;;;;;10506991;28;20050;-38
2023/10/26 06:01:53;;;;;;;3.40;1.20;;;20.20;80.00;;;;;;10499272;28;20150;-40
2023/10/26 06:06:55;;;;;;;1.33;0.90;;;20.20;79.90;;;;;;10501726;28;20085;-38
2023/10/26 06:11:57;;;;;;;3.22;1.40;;;20.30;79.80;;;;;;10495087;28;20444;-42
2023/10/26 06:17:00;;;;;;;3.85;1.05;;;20.30;80.00;;;;;;10498436;28;20082;-31
2023/10/26 06:22:02;;;;;;;1.50;1.17;;;20.30;79.90;;;;;;10497563;28;20040;-42
2023/10/26 06:27:04;;;;;;;;;;;20.30;80.00;;;;;;10496365;28;20063;-35
2023/10/26 06:32:07;;;;;;;5.25;1.52;;;20.30;80.50;;;;;;10497395;28;19927;-32
2023/10/26 06:37:09;;;;;;;1.40;1.02;;;20.30;80.20;;;;;;10490498;28;20083;-34
2023/10/26 06:42:12;;;;;;;1.90;1.08;;;20.30;79.70;;;;;;10492041;28;20042;-34
2023/10/26 06:47:15;;;;;;;2.13;1.10;;;20.30;80.10;;;;;;10490800;28;20462;-32
2023/10/26 06:52:18;;;;;;;1.75;1.00;;;20.30;79.90;;;;;;10491511;28;20460;-42
2023/10/26 06:57:19;;;;;;;1.95;1.05;;;20.30;79.90;;;;;;10492100;28;20036;-40
2023/10/26 07:02:22;;;;;;;1.58;0.95;;;20.20;80.00;;;;;;10497796;28;20629;-31
2023/10/26 07:07:24;;;;;;;1.40;1.17;;;20.20;80.00;;;;;;10497036;28;20082;-32
2023/10/26 07:12:26;;;;;;;2.78;1.10;;;20.10;80.00;;;;;;10487003;28;20126;-33
2023/10/26 07:17:29;;;;;;;1.10;1.00;;;20.10;80.00;;;;;;10481175;28;20071;-40
2023/10/26 07:22:33;;;;;;;2.45;1.30;;;20.10;80.00;;;;;;10498953;28;20221;-30
2023/10/26 07:27:35;;;;;;;2.47;1.08;;;20.00;80.60;;;;;;10501341;28;20045;-35
2023/10/26 07:32:38;;;;;;;0.88;0.80;;;20.00;79.80;;;;;;10494517;28;20049;-35
2023/10/26 07:37:40;;;;;;;1.60;1.05;;;19.90;80.00;;;;;;10501735;28;20040;-34
2023/10/26 07:42:42;;;;;;;1.52;1.13;;;19.90;80.10;;;;;;10490568;28;20931;-43
2023/10/26 07:47:45;;;;;;;3.00;1.52;;;19.80;80.10;;;;;;10492326;28;20480;-40
2023/10/26 07:52:48;;;;;;;2.45;1.52;;;19.70;80.30;;;;;;10494959;28;20484;-44
2023/10/26 07:57:50;;;;;;;1.50;1.38;;;19.70;80.40;;;;;;10493125;28;20050;-41
2023/10/26 08:02:53;;;;;;;5.38;1.92;;;19.70;80.20;;;;;;10496820;28;20094;-35
2023/10/26 08:07:55;;;;;;;2.15;1.50;;;19.60;80.30;;;;;;10496544;28;20044;-36
2023/10/26 08:12:56;;;;;;;2.88;1.67;;;19.60;80.50;;;;;;10495522;28;20047;-37
2023/10/26 08:18:00;;;;;;;1.50;1.27;;;19.70;80.30;;;;;;10494694;28;20043;-39
2023/10/26 08:23:03;;;;;;;3.70;1.40;;;19.60;80.40;;;;;;10497309;28;20044;-41
2023/10/26 08:28:05;;;;;;;1.90;1.60;;;19.60;80.50;;;;;;10503708;28;20060;-45
2023/10/26 08:33:08;;;;;;;2.33;1.40;;;19.70;80.40;;;;;;10488065;28;20189;-43
2023/10/26 08:38:10;;;;;;;1.70;1.30;;;19.70;80.20;;;;;;10492180;28;21579;-35
2023/10/26 08:43:12;;;;;;;1.55;1.30;;;19.60;80.20;;;;;;10496030;28;20542;-38
2023/10/26 08:48:17;;;;;;;3.58;1.70;;;19.60;80.30;;;;;;10485061;28;20036;-31
2023/10/26 08:53:19;;;;;;;3.40;1.80;;;19.60;80.20;;;;;;10498845;28;20052;-38
2023/10/26 08:58:22;;;;;;;2.38;1.77;;;19.70;80.40;;;;;;10496078;28;20424;-51
2023/10/26 09:03:25;;;;;;;3.13;1.90;;;19.70;80.30;;;;;;10493036;28;20063;-34
2023/10/26 09:08:29;;;;;;;2.53;1.73;;;19.70;80.20;;;;;;10488647;28;20044;-41
2023/10/26 09:13:31;;;;;;;5.70;2.67;;;19.60;80.10;;;;;;10480225;28;20812;-30
2023/10/26 09:18:35;;;;;;;4.30;2.58;;;19.50;80.40;;;;;;10490346;28;20049;-42
2023/10/26 09:23:40;;;;;;;5.05;2.67;;;18.80;83.70;;;;;;10484972;28;20711;-35
2023/10/26 09:28:52;;;;;;;4.10;3.05;;;19.30;81.70;;;;;;10479717;28;20142;-37
2023/10/26 09:33:55;;;;;;;;;;;19.60;80.60;;;;;;10495162;28;20053;-32
2023/10/26 09:38:57;;;;;;;16.35;8.70;;;19.70;80.30;;;;;;10480888;28;20077;-38
2023/10/26 09:43:59;;;;;;;25.08;12.63;;;19.70;80.20;;;;;;10473982;28;20140;-36
2023/10/26 09:49:03;;;;;;;28.42;16.02;;;19.80;80.40;;;;;;10486063;28;20040;-40
2023/10/26 09:54:08;;;;;;;39.38;19.15;;;19.80;80.40;;;;;;10492824;28;20567;-39
2023/10/26 09:59:11;;;;;;;34.00;20.67;;;19.80;80.20;;;;;;10494858;28;20044;-37
2023/10/26 10:04:14;;;;;;;45.15;23.58;;;19.90;80.30;;;;;;10485210;28;20163;-31
2023/10/26 10:09:18;;;;;;;40.42;25.23;;;19.90;80.30;;;;;;10491337;28;20068;-35
2023/10/26 10:14:57;;;;;;;48.78;24.95;;;19.90;80.20;;;;;;10490126;28;20044;-37
2023/10/26 10:20:31;;;;;;;42.40;26.67;;;19.90;80.20;;;;;;10483957;28;20581;-40
2023/10/26 10:25:56;;;;;;;43.03;26.33;;;20.00;80.10;;;;;;10472373;28;20056;-41
2023/10/26 10:31:00;;;;;;;43.83;26.42;;;19.90;80.70;;;;;;10488989;28;20119;-45
2023/10/26 10:36:05;;;;;;;43.35;27.55;;;19.90;80.70;;;;;;10485602;28;20044;-38
2023/10/26 10:41:14;;;;;;;40.50;24.88;;;20.00;80.30;;;;;;10491018;28;20049;-45
2023/10/26 10:46:18;;;;;;;42.63;24.77;;;20.00;80.40;;;;;;10477376;28;20394;-37
2023/10/26 10:51:21;;;;;;;38.22;22.25;;;20.00;80.30;;;;;;10484511;28;20164;-39
2023/10/26 10:56:24;;;;;;;35.90;22.50;;;19.90;80.50;;;;;;10492244;28;20044;-31
2023/10/26 11:01:27;;;;;;;38.38;23.88;;;20.00;80.20;;;;;;10458265;28;20063;-36
2023/10/26 11:06:31;;;;;;;40.88;22.92;;;20.00;80.60;;;;;;10479009;28;20135;-41
2023/10/26 11:11:34;;;;;;;39.28;22.20;;;20.10;80.20;;;;;;10482534;28;20040;-35
2023/10/26 11:16:37;;;;;;;32.60;20.83;;;20.10;80.40;;;;;;10489480;28;20105;-40
2023/10/26 11:21:41;;;;;;;31.85;19.65;;;20.10;80.90;;;;;;10476521;28;20708;-53
2023/10/26 11:26:43;;;;;;;37.80;19.88;;;20.20;80.20;;;;;;10480867;28;20094;-35
2023/10/26 11:31:44;;;;;;;30.95;18.40;;;20.10;80.40;;;;;;10496184;28;20053;-36
2023/10/26 11:36:48;;;;;;;27.55;18.42;;;20.20;80.30;;;;;;10495337;28;20075;-43
2023/10/26 11:41:53;;;;;;;31.80;18.02;;;20.10;80.70;;;;;;10478622;28;20085;-38
2023/10/26 11:47:01;;;;;;;30.67;17.00;;;20.20;80.40;;;;;;10494500;28;20044;-41
2023/10/26 11:52:05;;;;;;;29.17;16.90;;;20.20;80.10;;;;;;10496078;28;20035;-42
2023/10/26 11:57:06;;;;;;;26.95;15.43;;;20.30;80.00;;;;;;10487416;28;20533;-41
2023/10/26 12:02:08;;;;;;;21.15;14.77;;;20.30;79.80;;;;;;10506944;28;20095;-40
2023/10/26 12:07:11;;;;;;;23.15;14.20;;;20.20;80.00;;;;;;10501154;28;20117;-41
2023/10/26 12:12:13;;;;;;;21.10;13.57;;;20.30;79.70;;;;;;10492346;28;20064;-36
2023/10/26 12:17:15;;;;;;;24.95;13.27;;;20.20;80.10;;;;;;10480979;28;20055;-38
2023/10/26 12:22:19;;;;;;;21.00;12.90;;;20.30;80.50;;;;;;10504678;28;20060;-32
2023/10/26 12:27:20;;;;;;;19.08;11.90;;;20.30;79.80;;;;;;10503468;28;20071;-37
2023/10/26 12:32:23;;;;;;;18.98;11.77;;;20.30;79.60;;;;;;10498644;28;20435;-31
2023/10/26 12:37:27;;;;;;;21.88;11.75;;;20.30;79.70;;;;;;10500558;28;20055;-35
2023/10/26 12:42:28;;;;;;;18.45;11.25;;;20.30;79.80;;;;;;10478018;28;20044;-35
2023/10/26 12:47:30;;;;;;;19.33;12.40;;;20.30;79.80;;;;;;10482499;28;20789;-40
2023/10/26 12:52:33;;;;;;;18.20;10.95;;;20.30;80.00;;;;;;10496233;28;20053;-34
2023/10/26 12:57:35;;;;;;;22.85;10.40;;;20.40;80.10;;;;;;10486066;28;20279;-36
2023/10/26 13:02:37;;;;;;;17.67;10.80;;;20.40;79.80;;;;;;10487027;28;20055;-43
2023/10/26 13:07:40;;;;;;;15.00;9.48;;;20.40;80.00;;;;;;10489111;28;20936;-56
2023/10/26 13:12:43;;;;;;;20.27;10.18;;;20.40;80.40;;;;;;10488909;28;20057;-39
2023/10/26 13:17:45;;;;;;;15.45;9.82;;;20.50;79.70;;;;;;10483469;28;20045;-32
2023/10/26 13:22:49;;;;;;;15.15;9.05;;;20.50;79.60;;;;;;10501351;28;20416;-39
2023/10/26 13:27:51;;;;;;;19.52;8.70;;;20.50;79.50;;;;;;10493317;28;20095;-38
2023/10/26 13:32:53;;;;;;;12.90;8.38;;;20.50;80.00;;;;;;10496807;28;20642;-39
2023/10/26 13:37:56;;;;;;;13.88;8.50;;;20.50;78.80;;;;;;10496102;28;20513;-34
2023/10/26 13:42:58;;;;;;;11.45;7.55;;;20.50;80.30;;;;;;10494830;28;20148;-34
2023/10/26 13:48:00;;;;;;;12.98;7.55;;;20.60;79.80;;;;;;10481763;28;20039;-46
2023/10/26 13:53:03;;;;;;;14.68;7.70;;;20.60;79.80;;;;;;10485501;28;20044;-47
2023/10/26 13:58:05;;;;;;;15.80;7.13;;;20.70;79.70;;;;;;10487953;28;20074;-34
2023/10/26 14:03:07;;;;;;;9.93;6.85;;;20.90;79.60;;;;;;10484950;28;20052;-36
2023/10/26 14:08:10;;;;;;;10.77;6.70;;;21.00;79.70;;;;;;10494145;28;20127;-32
2023/10/26 14:13:13;;;;;;;11.35;6.38;;;21.00;80.10;;;;;;10486497;28;20111;-39
2023/10/26 14:18:15;;;;;;;12.73;7.28;;;21.10;79.70;;;;;;10489065;28;20059;-45
2023/10/26 14:23:19;;;;;;;9.00;6.18;;;21.20;79.50;;;;;;10500223;28;20040;-32
2023/10/26 14:28:21;;;;;;;9.95;6.07;;;21.20;80.20;;;;;;10486732;28;20048;-32
2023/10/26 14:33:23;;;;;;;12.05;6.07;;;21.30;79.50;;;;;;10496293;28;20116;-40
2023/10/26 14:38:26;;;;;;;11.90;5.70;;;21.30;79.60;;;;;;10503056;28;20529;-35
2023/10/26 14:43:28;;;;;;;12.60;5.75;;;21.40;79.70;;;;;;10489940;28;20378;-38
2023/10/26 14:48:30;;;;;;;12.35;5.80;;;21.40;79.80;;;;;;10489318;28;20036;-32
2023/10/26 14:53:34;;;;;;;12.80;5.68;;;21.40;79.70;;;;;;10496388;28;20690;-50
2023/10/26 14:58:35;;;;;;;11.65;4.93;;;21.40;80.00;;;;;;10482136;28;20127;-37
2023/10/26 15:03:37;;;;;;;10.70;5.25;;;21.50;80.00;;;;;;10500149;28;20063;-40
2023/10/26 15:08:40;;;;;;;8.40;4.88;;;21.50;80.00;;;;;;10494051;28;20040;-37
2023/10/26 15:13:42;;;;;;;13.32;5.25;;;21.50;80.10;;;;;;10492852;28;20060;-30
2023/10/26 15:18:44;;;;;;;10.02;4.97;;;21.50;80.20;;;;;;10498011;28;20082;-33
2023/10/26 15:23:48;;;;;;;9.02;4.88;;;21.50;80.20;;;;;;10494167;28;20049;-32
2023/10/26 15:28:50;;;;;;;12.68;4.43;;;21.50;79.90;;;;;;10490962;28;20049;-39
2023/10/26 15:33:52;;;;;;;16.25;4.80;;;21.60;80.30;;;;;;10496263;28;20494;-32
2023/10/26 15:38:56;;;;;;;6.80;3.58;;;21.60;80.20;;;;;;10497752;28;20057;-32
2023/10/26 15:43:58;;;;;;;7.65;3.33;;;21.60;80.20;;;;;;10480163;28;20101;-35
2023/10/26 15:49:05;;;;;;;9.05;4.75;;;21.60;80.10;;;;;;10482962;28;20040;-35
2023/10/26 15:54:08;;;;;;;12.93;5.50;;;21.10;82.00;;;;;;10486965;28;20055;-38
2023/10/26 15:59:10;;;;;;;14.90;7.32;;;21.20;81.80;;;;;;10495726;28;20650;-33
2023/10/26 16:04:12;;;;;;;15.68;6.78;;;21.00;82.20;;;;;;10477831;28;20049;-41
2023/10/26 16:09:15;;;;;;;13.18;6.53;;;21.00;82.70;;;;;;10494599;28;20121;-36
2023/10/26 16:14:17;;;;;;;12.30;6.00;;;21.10;82.20;;;;;;10483338;28;20088;-33
2023/10/26 16:19:20;;;;;;;13.25;6.35;;;21.10;82.70;;;;;;10490272;28;20082;-50
2023/10/26 16:24:23;;;;;;;;;;;21.00;82.70;;;;;;10499995;28;20048;-38
2023/10/26 16:29:24;;;;;;;6.43;3.80;;;21.40;81.20;;;;;;10489269;28;19928;-33
2023/10/26 16:34:26;;;;;;;11.80;4.60;;;21.40;80.90;;;;;;10491434;28;20056;-35
2023/10/26 16:39:30;;;;;;;9.55;4.25;;;21.50;80.90;;;;;;10491470;28;20089;-38
2023/10/26 16:44:31;;;;;;;11.07;5.47;;;21.30;81.30;;;;;;10492979;28;20033;-40
2023/10/26 16:49:33;;;;;;;12.32;7.40;;;21.40;81.20;;;;;;10491457;28;20144;-37
2023/10/26 16:54:36;;;;;;;16.00;7.90;;;21.20;81.50;;;;;;10499944;28;20101;-47
2023/10/26 16:59:38;;;;;;;14.63;7.78;;;21.20;81.80;;;;;;10495900;28;20535;-39
2023/10/26 17:04:42;;;;;;;16.52;9.80;;;21.20;81.50;;;;;;10503308;28;20165;-35
2023/10/26 17:09:45;;;;;;;24.33;12.52;;;20.90;80.30;;;;;;10488551;28;20065;-37
2023/10/26 17:14:48;;;;;;;17.77;8.25;;;20.90;81.50;;;;;;10493722;28;20126;-29
2023/10/26 17:19:50;;;;;;;18.10;9.57;;;21.10;81.90;;;;;;10490210;28;20139;-39
2023/10/26 17:24:53;;;;;;;15.80;8.65;;;20.90;81.90;;;;;;10506502;28;20130;-46
2023/10/26 17:29:55;;;;;;;12.93;7.60;;;21.00;82.40;;;;;;10499026;28;20654;-37
2023/10/26 17:34:57;;;;;;;10.23;5.40;;;21.40;81.50;;;;;;10498726;28;20057;-34
2023/10/26 17:40:00;;;;;;;10.13;5.72;;;21.50;81.80;;;;;;10508226;28;20133;-32
2023/10/26 17:45:01;;;;;;;9.00;5.15;;;21.50;81.40;;;;;;10486446;28;20123;-39
2023/10/26 17:50:03;;;;;;;10.43;4.47;;;21.40;81.50;;;;;;10479893;28;20741;-36
2023/10/26 17:55:08;;;;;;;8.93;4.75;;;21.50;81.30;;;;;;10503066;28;20505;-37
2023/10/26 18:00:10;;;;;;;6.97;3.78;;;21.50;81.60;;;;;;10490678;28;20078;-41
2023/10/26 18:05:12;;;;;;;6.85;3.65;;;21.50;81.60;;;;;;10495083;28;20117;-39
2023/10/26 18:10:15;;;;;;;6.13;3.83;;;21.60;82.00;;;;;;10492012;28;20206;-29
2023/10/26 18:15:17;;;;;;;6.15;2.80;;;21.60;81.40;;;;;;10492136;28;20067;-36
2023/10/26 18:20:19;;;;;;;7.07;3.33;;;21.60;81.60;;;;;;10498634;28;20090;-40
2023/10/26 18:25:22;;;;;;;5.05;2.90;;;21.60;81.60;;;;;;10494063;28;20492;-31
2023/10/26 18:30:24;;;;;;;5.07;2.75;;;21.60;81.60;;;;;;10490128;28;20101;-41
2023/10/26 18:35:27;;;;;;;6.95;3.40;;;21.60;81.60;;;;;;10498758;28;20435;-35
2023/10/26 18:40:37;;;;;;;4.78;2.50;;;21.60;81.80;;;;;;10490618;28;20056;-34
2023/10/26 18:45:39;;;;;;;4.45;2.92;;;21.60;81.70;;;;;;10484740;28;20048;-50
2023/10/26 18:50:41;;;;;;;4.85;2.55;;;21.70;81.60;;;;;;10493694;28;20097;-34
2023/10/26 18:55:44;;;;;;;6.13;2.65;;;21.60;81.60;;;;;;10492575;28;20068;-38
2023/10/26 19:00:47;;;;;;;5.93;2.90;;;21.70;81.50;;;;;;10485586;28;20109;-33
2023/10/26 19:05:51;;;;;;;4.70;2.50;;;21.70;81.60;;;;;;10496405;28;20135;-42
2023/10/26 19:10:54;;;;;;;5.25;2.60;;;21.70;81.40;;;;;;10474259;28;20040;-33
2023/10/26 19:15:56;;;;;;;5.80;3.30;;;21.60;81.20;;;;;;10491296;28;20102;-42
2023/10/26 19:20:59;;;;;;;7.75;3.13;;;21.60;81.50;;;;;;10492877;28;20043;-31
2023/10/26 19:26:04;;;;;;;5.00;2.22;;;21.50;81.60;;;;;;10496408;28;22540;-46
2023/10/26 19:31:11;;;;;;;8.63;3.13;;;21.60;81.30;;;;;;10497527;28;20051;-38
2023/10/26 19:36:12;;;;;;;4.40;2.75;;;21.60;81.20;;;;;;10491860;28;20048;-35
2023/10/26 19:41:16;;;;;;;3.33;2.30;;;21.60;81.20;;;;;;10485982;28;20427;-35
2023/10/26 19:46:18;;;;;;;5.60;2.92;;;21.60;81.20;;;;;;10494883;28;20629;-42
2023/10/26 19:51:20;;;;;;;;;;;21.70;80.90;;;;;;10498629;28;20565;-38
2023/10/26 19:56:23;;;;;;;5.40;2.50;;;21.60;80.90;;;;;;10502304;28;20491;-35
2023/10/26 20:01:25;;;;;;;9.77;3.28;;;21.60;81.10;;;;;;10505313;28;20059;-33
2023/10/26 20:06:27;;;;;;;8.10;3.35;;;21.60;80.90;;;;;;10504318;28;20048;-37
2023/10/26 20:11:30;;;;;;;5.03;2.70;;;21.60;80.90;;;;;;10500329;28;20133;-38
2023/10/26 20:16:33;;;;;;;6.57;2.80;;;21.60;80.80;;;;;;10501868;28;20064;-32
2023/10/26 20:21:37;;;;;;;6.35;2.60;;;21.60;80.80;;;;;;10508228;28;20135;-37
2023/10/26 20:26:41;;;;;;;7.07;3.03;;;21.50;80.90;;;;;;10499448;28;20564;-38
2023/10/26 20:31:43;;;;;;;7.57;3.10;;;21.60;80.90;;;;;;10497220;28;20068;-44
2023/10/26 20:36:45;;;;;;;6.07;2.47;;;21.50;80.90;;;;;;10508220;28;20149;-39
2023/10/26 20:41:48;;;;;;;5.32;2.58;;;21.50;80.90;;;;;;10511865;28;20052;-39
2023/10/26 20:46:50;;;;;;;5.55;3.17;;;21.50;80.80;;;;;;10496075;28;20032;-37
2023/10/26 20:51:52;;;;;;;4.93;2.97;;;21.50;80.70;;;;;;10502775;28;20490;-32
2023/10/26 20:56:55;;;;;;;6.80;2.55;;;21.50;80.70;;;;;;10514121;28;20044;-33
2023/10/26 21:01:57;;;;;;;4.68;2.53;;;21.50;80.70;;;;;;10504135;28;20532;-32
2023/10/26 21:06:59;;;;;;;6.22;2.72;;;21.50;80.80;;;;;;10513423;28;20459;-42
2023/10/26 21:12:03;;;;;;;7.95;4.30;;;21.40;80.80;;;;;;10501455;28;20071;-34
2023/10/26 21:17:05;;;;;;;4.65;2.35;;;21.40;80.90;;;;;;10497237;28;20098;-34
2023/10/26 21:22:07;;;;;;;9.52;3.40;;;21.30;81.20;;;;;;10504761;28;20040;-41
2023/10/26 21:27:10;;;;;;;6.32;3.35;;;21.30;81.20;;;;;;10512004;28;20040;-36
2023/10/26 21:32:12;;;;;;;5.07;2.55;;;21.30;82.00;;;;;;10501132;28;20047;-42
2023/10/26 21:37:14;;;;;;;5.80;2.70;;;21.20;81.50;;;;;;10497959;28;20098;-43
2023/10/26 21:42:18;;;;;;;4.25;2.50;;;21.10;81.70;;;;;;10505193;28;20040;-36
2023/10/26 21:47:20;;;;;;;7.03;3.40;;;21.10;81.70;;;;;;10469613;28;20048;-38
2023/10/26 21:52:22;;;;;;;5.93;2.95;;;21.10;81.80;;;;;;10500519;28;20035;-41
2023/10/26 21:57:25;;;;;;;6.07;2.58;;;21.10;81.90;;;;;;10503587;28;20434;-41
2023/10/26 22:02:27;;;;;;;6.22;2.53;;;21.10;82.10;;;;;;10479113;28;20820;-41
2023/10/26 22:07:29;;;;;;;4.90;2.50;;;21.00;82.00;;;;;;10481709;28;20697;-33
2023/10/26 22:12:32;;;;;;;3.10;1.90;;;21.00;81.90;;;;;;10494491;28;20749;-45
2023/10/26 22:17:34;;;;;;;3.83;2.15;;;21.00;82.10;;;;;;10496589;28;20219;-36
2023/10/26 22:22:36;;;;;;;5.15;2.35;;;21.00;82.00;;;;;;10492789;28;20072;-43
2023/10/26 22:27:39;;;;;;;;;;;21.00;82.00;;;;;;10496538;28;20075;-34
2023/10/26 22:32:43;;;;;;;3.40;2.10;;;21.00;82.00;;;;;;10492661;28;19994;-39
2023/10/26 22:37:45;;;;;;;5.22;2.50;;;21.00;81.90;;;;;;10502929;28;20048;-34
2023/10/26 22:42:48;;;;;;;4.75;2.80;;;20.90;82.00;;;;;;10491513;28;20090;-49
2023/10/26 22:47:52;;;;;;;3.05;2.10;;;20.90;81.90;;;;;;10490238;28;20056;-39
2023/10/26 22:52:53;;;;;;;3.80;2.17;;;20.90;81.90;;;;;;10503708;28;20044;-34
2023/10/26 22:57:57;;;;;;;3.85;2.30;;;20.80;82.00;;;;;;10498670;28;20087;-29
2023/10/26 23:02:58;;;;;;;4.93;2.25;;;20.90;82.00;;;;;;10492664;28;20040;-41
2023/10/26 23:08:00;;;;;;;3.47;2.10;;;20.90;81.90;;;;;;10495953;28;20465;-34
2023/10/26 23:13:03;;;;;;;4.18;2.00;;;20.80;81.90;;;;;;10491975;28;20070;-43
2023/10/26 23:18:05;;;;;;;6.70;2.50;;;20.80;81.90;;;;;;10482871;28;20090;-37
2023/10/26 23:23:07;;;;;;;4.10;2.38;;;20.80;81.90;;;;;;10492830;28;20109;-39
2023/10/26 23:28:11;;;;;;;6.15;2.45;;;20.80;81.90;;;;;;10498300;28;20135;-36
2023/10/26 23:33:13;;;;;;;2.65;1.92;;;20.80;82.00;;;;;;10499765;28;20520;-33
2023/10/26 23:38:14;;;;;;;6.25;2.10;;;20.80;81.90;;;;;;10509789;28;20571;-36
2023/10/26 23:43:18;;;;;;;4.00;2.10;;;20.70;81.90;;;;;;10501933;28;20133;-32
2023/10/26 23:48:19;;;;;;;3.25;2.38;;;20.80;81.80;;;;;;10499856;28;20432;-37
2023/10/26 23:53:22;;;;;;;3.85;2.35;;;20.70;81.80;;;;;;10508369;28;20036;-42
2023/10/26 23:58:25;;;;;;;9.60;2.45;;;20.70;81.60;;;;;;10497139;28;20537;-35
